createdAt,value
2018-12-16T00:04:01.482Z,19.10
2018-12-16T00:14:29.522Z,16.50
2018-12-16T00:19:33.870Z,16.60
2018-12-16T00:24:38.660Z,17.60
2018-12-16T00:35:01.799Z,21.53
2018-12-16T00:40:09.210Z,20.77
2018-12-16T00:45:14.081Z,16.97
2018-12-16T00:55:40.319Z,13.17
2018-12-16T01:06:01.602Z,20.73
2018-12-16T01:11:06.277Z,20.43
2018-12-16T01:21:31.666Z,21.27
2018-12-16T01:26:36.122Z,19.87
2018-12-16T01:37:08.579Z,24.47
2018-12-16T01:47:35.214Z,22.50
2018-12-16T01:58:04.784Z,22.83
2018-12-16T02:03:09.474Z,23.53
2018-12-16T02:08:16.400Z,22.03
2018-12-16T02:18:40.932Z,16.27
2018-12-16T02:23:45.733Z,21.90
2018-12-16T02:28:51.306Z,30.47
2018-12-16T02:33:56.924Z,16.67
2018-12-16T02:39:01.811Z,21.13
2018-12-16T02:44:07.831Z,21.27
2018-12-16T02:49:13.194Z,18.33
2018-12-16T02:54:18.996Z,23.27
2018-12-16T02:59:23.741Z,22.97
2018-12-16T03:04:30.573Z,20.17
2018-12-16T03:09:36.005Z,19.00
2018-12-16T03:14:40.909Z,19.07
2018-12-16T03:19:45.951Z,22.73
2018-12-16T03:30:12.875Z,22.90
2018-12-16T03:35:18.019Z,20.83
2018-12-16T03:45:42.358Z,20.27
2018-12-16T03:50:46.883Z,21.60
2018-12-16T03:55:52.890Z,21.80
2018-12-16T04:00:59.218Z,18.80
2018-12-16T04:06:04.192Z,19.67
2018-12-16T04:11:09.768Z,23.90
2018-12-16T04:16:15.831Z,24.47
2018-12-16T04:21:21.354Z,22.97
2018-12-16T04:26:26.146Z,18.90
2018-12-16T04:31:31.602Z,21.87
2018-12-16T04:42:03.483Z,21.37
2018-12-16T04:47:08.223Z,20.50
2018-12-16T04:52:12.758Z,22.07
2018-12-16T04:57:17.749Z,23.53
2018-12-16T05:02:23.173Z,18.37
2018-12-16T05:12:48.302Z,21.20
2018-12-16T05:17:55.640Z,21.97
2018-12-16T05:23:01.599Z,18.43
2018-12-16T05:28:06.843Z,25.37
2018-12-16T05:33:11.609Z,18.67
2018-12-16T05:38:16.201Z,17.60
2018-12-16T05:43:22.132Z,17.13
2018-12-16T05:48:27.877Z,17.77
2018-12-16T05:53:36.004Z,13.17
2018-12-16T05:58:42.599Z,14.07
2018-12-16T06:03:49.514Z,12.97
2018-12-16T06:08:55.461Z,16.57
2018-12-16T06:14:00.893Z,14.73
2018-12-16T06:19:05.122Z,15.80
2018-12-16T06:24:11.052Z,10.00
2018-12-16T06:36:56.726Z,12.23
2018-12-16T06:47:32.891Z,13.67
2018-12-16T06:52:38.145Z,9.57
2018-12-16T06:57:43.142Z,12.57
2018-12-16T07:02:53.212Z,13.97
2018-12-16T07:07:59.602Z,16.23
2018-12-16T07:13:05.354Z,11.20
2018-12-16T07:18:11.005Z,10.63
2018-12-16T07:23:18.373Z,13.90
2018-12-16T07:33:40.262Z,11.63
2018-12-16T07:38:45.688Z,11.60
2018-12-16T07:43:51.176Z,13.47
2018-12-16T07:48:55.848Z,21.93
2018-12-16T07:54:00.078Z,14.97
2018-12-16T07:59:05.208Z,20.83
2018-12-16T08:09:31.310Z,15.00
2018-12-16T08:20:07.655Z,16.63
2018-12-16T08:30:40.558Z,15.33
2018-12-16T08:35:46.117Z,17.03
2018-12-16T08:40:51.188Z,14.63
2018-12-16T08:45:56.463Z,14.00
2018-12-16T08:51:02.856Z,15.43
2018-12-16T08:56:09.822Z,15.03
2018-12-16T09:06:36.041Z,11.20
2018-12-16T09:11:43.825Z,21.20
2018-12-16T09:16:49.167Z,12.00
2018-12-16T09:21:54.450Z,10.77
2018-12-16T09:27:00.592Z,12.60
2018-12-16T09:32:06.303Z,16.37
2018-12-16T09:37:12.361Z,18.37
2018-12-16T09:42:18.069Z,13.17
2018-12-16T09:52:44.041Z,16.67
2018-12-16T09:57:48.881Z,14.43
2018-12-16T10:02:53.646Z,18.93
2018-12-16T10:07:57.887Z,15.67
2018-12-16T10:13:02.163Z,17.00
2018-12-16T10:18:06.525Z,15.80
2018-12-16T10:28:32.540Z,27.37
2018-12-16T10:33:37.595Z,16.10
2018-12-16T10:38:43.507Z,15.23
2018-12-16T10:43:50.156Z,18.03
2018-12-16T10:48:56.965Z,19.73
2018-12-16T10:59:23.991Z,24.60
2018-12-16T11:04:29.128Z,19.97
2018-12-16T11:09:36.422Z,27.33
2018-12-16T11:14:42.279Z,25.83
2018-12-16T11:19:47.088Z,25.37
2018-12-16T11:24:52.423Z,25.00
2018-12-16T11:29:57.590Z,28.80
2018-12-16T11:35:02.215Z,21.90
2018-12-16T11:40:08.341Z,31.13
2018-12-16T11:45:13.745Z,28.53
2018-12-16T11:50:18.829Z,23.93
2018-12-16T11:55:23.159Z,31.03
2018-12-16T12:00:28.999Z,26.03
2018-12-16T12:05:35.144Z,20.67
2018-12-16T12:10:41.045Z,22.20
2018-12-16T12:15:47.341Z,22.20
2018-12-16T12:20:52.603Z,17.03
2018-12-16T12:25:57.225Z,21.30
2018-12-16T12:31:07.023Z,22.03
2018-12-16T12:41:44.346Z,22.17
2018-12-16T12:46:49.201Z,22.70
2018-12-16T12:51:57.413Z,27.23
2018-12-16T12:57:02.880Z,20.87
2018-12-16T13:02:08.283Z,21.33
2018-12-16T13:12:37.186Z,18.77
2018-12-16T13:17:45.735Z,20.63
2018-12-16T13:22:53.010Z,27.60
2018-12-16T13:33:19.294Z,20.87
2018-12-16T13:38:25.737Z,22.80
2018-12-16T13:48:59.284Z,21.80
2018-12-16T13:54:03.657Z,20.33
2018-12-16T13:59:08.045Z,24.20
2018-12-16T14:04:12.779Z,19.92
2018-12-16T14:14:40.344Z,26.60
2018-12-16T14:19:46.744Z,25.57
2018-12-16T14:24:51.381Z,30.80
2018-12-16T14:29:56.807Z,29.70
2018-12-16T14:35:01.668Z,35.63
2018-12-16T14:45:30.522Z,27.50
2018-12-16T14:50:36.586Z,21.87
2018-12-16T14:55:41.613Z,31.50
2018-12-16T15:00:47.644Z,22.57
2018-12-16T15:05:56.954Z,23.63
2018-12-16T15:11:02.945Z,24.67
2018-12-16T15:16:10.333Z,23.00
2018-12-16T15:21:15.688Z,19.27
2018-12-16T15:26:22.504Z,28.93
2018-12-16T15:31:27.494Z,24.60
2018-12-16T15:42:01.144Z,25.70
2018-12-16T15:47:05.664Z,27.33
2018-12-16T15:52:10.295Z,24.40
2018-12-16T15:57:15.166Z,27.43
2018-12-16T16:02:20.389Z,26.77
2018-12-16T16:07:26.328Z,26.03
2018-12-16T16:12:30.563Z,26.40
2018-12-16T16:23:01.624Z,23.90
2018-12-16T16:28:06.093Z,27.93
2018-12-16T16:33:10.663Z,23.83
2018-12-16T16:38:15.287Z,29.53
2018-12-16T16:43:19.777Z,21.70
2018-12-16T16:53:49.993Z,32.00
2018-12-16T16:58:55.113Z,26.67
2018-12-16T17:04:00.301Z,23.50
2018-12-16T17:09:08.580Z,30.57
2018-12-16T17:14:12.879Z,22.77
2018-12-16T17:19:17.530Z,25.63
2018-12-16T17:29:50.444Z,29.13
2018-12-16T17:34:54.830Z,19.90
2018-12-16T17:39:59.559Z,20.53
2018-12-16T17:45:05.273Z,26.70
2018-12-16T17:50:10.003Z,22.83
2018-12-16T17:55:15.197Z,26.20
2018-12-16T18:00:20.283Z,31.13
2018-12-16T18:05:25.682Z,26.23
2018-12-16T18:15:58.980Z,29.73
2018-12-16T18:21:04.309Z,30.23
2018-12-16T18:26:11.340Z,24.70
2018-12-16T18:31:17.536Z,26.77
2018-12-16T18:36:24.634Z,30.57
2018-12-16T18:41:31.108Z,35.90
2018-12-16T18:46:38.494Z,27.73
2018-12-16T18:51:45.742Z,23.53
2018-12-16T18:56:57.077Z,23.67
2018-12-16T19:02:05.626Z,30.83
2018-12-16T19:07:10.863Z,28.30
2018-12-16T19:17:40.116Z,26.93
2018-12-16T19:22:45.254Z,26.03
2018-12-16T19:27:49.883Z,28.17
2018-12-16T19:32:55.458Z,32.33
2018-12-16T19:38:03.107Z,30.63
2018-12-16T19:43:09.151Z,36.20
2018-12-16T19:48:46.095Z,32.50
2018-12-16T20:03:22.172Z,28.60
2018-12-16T20:08:28.081Z,31.43
2018-12-16T20:13:32.522Z,36.50
2018-12-16T20:18:38.056Z,36.17
2018-12-16T20:29:15.462Z,36.90
2018-12-16T20:34:20.162Z,36.60
2018-12-16T20:39:25.268Z,37.80
2018-12-16T20:44:30.061Z,42.40
2018-12-16T20:49:35.019Z,46.33
2018-12-16T20:54:40.474Z,34.83
2018-12-16T20:59:45.359Z,30.47
2018-12-16T21:04:50.851Z,33.40
2018-12-16T21:09:55.493Z,32.27
2018-12-16T21:15:06.504Z,49.17
2018-12-16T21:20:12.073Z,36.83
2018-12-16T21:30:39.981Z,35.47
2018-12-16T21:41:09.349Z,32.70
2018-12-16T21:51:54.221Z,33.97
2018-12-16T21:56:59.945Z,38.63
2018-12-16T22:02:05.794Z,45.30
2018-12-16T22:07:21.506Z,40.07
2018-12-16T22:12:28.642Z,37.83
2018-12-16T22:22:55.559Z,50.23
2018-12-16T22:33:22.402Z,43.63
2018-12-16T22:38:27.238Z,55.20
2018-12-16T22:43:31.909Z,53.90
2018-12-16T22:48:37.845Z,60.83
2018-12-16T22:53:43.529Z,52.37
2018-12-16T22:58:54.313Z,54.53
2018-12-16T23:03:58.549Z,57.53
2018-12-16T23:09:05.443Z,58.27
2018-12-16T23:14:12.701Z,53.38
2018-12-16T23:19:20.415Z,84.20
2018-12-16T23:30:00.855Z,54.10
2018-12-16T23:40:32.645Z,64.67
2018-12-16T23:45:38.643Z,69.20
2018-12-16T23:50:43.283Z,66.50
